RJNG METAR and TAF | Updated Today

RJNG METAR

Gifu Airport

Observation time: 9:38 hr. ago

RJNG 291130Z VRB01KT 9999 FEW020 BKN035 BKN/// 23/17 Q1014 RMK 1CU020 5CU035 A2995

Need help? Read our tutorial on how to read METARs or read the parsed version below.

Gifu Airport (RJNG) METAR

  • Weather conditions on Thu, 29 Sep 2022 11:30:00 +0000 (9:38 hr. ago):
  • Present conditions: Dry
  • Clouds: A few at 610 meters; broken sky at 1067 meters; broken sky
  • Visibility: Greater than 10 km
  • Wind: Variable at 1 knots
  • Temperature: 23 celsius
  • Dew point: 17 celsius
  • Pressure: 1014 millibars
  • Remarks: 1CU020 5CU035 A2995


Useful to know...

  • Codes: RJNG/QGU
  • Airport elevation: 128ft
  • Municipality: Gifu
  • Country: Japan
  • Continent: Asia